sensor_id;sensor_type;location;lat;lon;timestamp;P1;durP1;ratioP1;P2;durP2;ratioP2
74707;SDS011;63360;50.104;8.074;2023-04-29T00:01:33;3.17;;;2.17;;
74707;SDS011;63360;50.104;8.074;2023-04-29T00:04:00;4.32;;;2.20;;
74707;SDS011;63360;50.104;8.074;2023-04-29T00:06:27;4.30;;;2.25;;
74707;SDS011;63360;50.104;8.074;2023-04-29T00:08:54;6.82;;;2.58;;
74707;SDS011;63360;50.104;8.074;2023-04-29T00:11:20;4.23;;;2.50;;
74707;SDS011;63360;50.104;8.074;2023-04-29T00:13:47;4.72;;;2.38;;
74707;SDS011;63360;50.104;8.074;2023-04-29T00:16:13;4.65;;;2.47;;
74707;SDS011;63360;50.104;8.074;2023-04-29T00:18:39;6.05;;;2.65;;
74707;SDS011;63360;50.104;8.074;2023-04-29T00:21:06;4.70;;;2.47;;
74707;SDS011;63360;50.104;8.074;2023-04-29T00:23:33;4.30;;;2.60;;
74707;SDS011;63360;50.104;8.074;2023-04-29T00:25:59;5.80;;;2.88;;
74707;SDS011;63360;50.104;8.074;2023-04-29T00:28:26;5.47;;;2.53;;
74707;SDS011;63360;50.104;8.074;2023-04-29T00:30:52;8.52;;;3.97;;
74707;SDS011;63360;50.104;8.074;2023-04-29T00:33:19;6.05;;;3.22;;
74707;SDS011;63360;50.104;8.074;2023-04-29T00:35:45;8.47;;;3.10;;
74707;SDS011;63360;50.104;8.074;2023-04-29T00:38:12;6.03;;;3.20;;
74707;SDS011;63360;50.104;8.074;2023-04-29T00:40:38;5.38;;;3.10;;
74707;SDS011;63360;50.104;8.074;2023-04-29T00:43:05;5.40;;;3.03;;
74707;SDS011;63360;50.104;8.074;2023-04-29T00:45:31;6.22;;;3.05;;
74707;SDS011;63360;50.104;8.074;2023-04-29T00:47:58;6.43;;;3.17;;
74707;SDS011;63360;50.104;8.074;2023-04-29T00:50:24;8.43;;;3.47;;
74707;SDS011;63360;50.104;8.074;2023-04-29T00:52:51;7.22;;;3.03;;
74707;SDS011;63360;50.104;8.074;2023-04-29T00:55:17;6.70;;;3.42;;
74707;SDS011;63360;50.104;8.074;2023-04-29T00:57:44;8.60;;;3.72;;
74707;SDS011;63360;50.104;8.074;2023-04-29T01:00:13;5.83;;;3.20;;
74707;SDS011;63360;50.104;8.074;2023-04-29T01:02:41;5.78;;;2.92;;
74707;SDS011;63360;50.104;8.074;2023-04-29T01:05:08;7.93;;;3.80;;
74707;SDS011;63360;50.104;8.074;2023-04-29T01:07:47;8.27;;;3.17;;
74707;SDS011;63360;50.104;8.074;2023-04-29T01:10:35;8.07;;;3.28;;
74707;SDS011;63360;50.104;8.074;2023-04-29T01:16:03;5.57;;;3.08;;
74707;SDS011;63360;50.104;8.074;2023-04-29T01:18:35;5.07;;;3.08;;
74707;SDS011;63360;50.104;8.074;2023-04-29T01:21:02;5.45;;;3.28;;
74707;SDS011;63360;50.104;8.074;2023-04-29T01:23:29;6.13;;;3.13;;
74707;SDS011;63360;50.104;8.074;2023-04-29T01:25:55;7.67;;;3.33;;
74707;SDS011;63360;50.104;8.074;2023-04-29T01:28:28;5.18;;;3.10;;
74707;SDS011;63360;50.104;8.074;2023-04-29T01:31:18;4.88;;;3.10;;
74707;SDS011;63360;50.104;8.074;2023-04-29T01:33:57;4.75;;;3.00;;
74707;SDS011;63360;50.104;8.074;2023-04-29T01:39:32;5.40;;;2.77;;
74707;SDS011;63360;50.104;8.074;2023-04-29T01:42:33;5.45;;;3.05;;
74707;SDS011;63360;50.104;8.074;2023-04-29T01:45:05;6.47;;;3.25;;
74707;SDS011;63360;50.104;8.074;2023-04-29T01:47:34;5.45;;;3.30;;
74707;SDS011;63360;50.104;8.074;2023-04-29T01:50:01;6.18;;;3.55;;
74707;SDS011;63360;50.104;8.074;2023-04-29T01:52:28;6.27;;;3.20;;
74707;SDS011;63360;50.104;8.074;2023-04-29T01:54:54;4.95;;;3.08;;
74707;SDS011;63360;50.104;8.074;2023-04-29T01:57:21;5.38;;;3.05;;
74707;SDS011;63360;50.104;8.074;2023-04-29T01:59:47;6.93;;;3.20;;
74707;SDS011;63360;50.104;8.074;2023-04-29T02:02:14;7.53;;;3.70;;
74707;SDS011;63360;50.104;8.074;2023-04-29T02:04:40;7.03;;;3.77;;
74707;SDS011;63360;50.104;8.074;2023-04-29T02:07:08;6.45;;;3.60;;
74707;SDS011;63360;50.104;8.074;2023-04-29T02:09:34;9.05;;;3.97;;
74707;SDS011;63360;50.104;8.074;2023-04-29T02:12:01;4.68;;;3.20;;
74707;SDS011;63360;50.104;8.074;2023-04-29T02:14:29;6.30;;;3.60;;
74707;SDS011;63360;50.104;8.074;2023-04-29T02:16:56;5.93;;;3.90;;
74707;SDS011;63360;50.104;8.074;2023-04-29T02:19:23;6.47;;;3.60;;
74707;SDS011;63360;50.104;8.074;2023-04-29T02:21:49;7.00;;;3.38;;
74707;SDS011;63360;50.104;8.074;2023-04-29T02:24:15;6.78;;;3.42;;
74707;SDS011;63360;50.104;8.074;2023-04-29T02:26:42;7.10;;;3.58;;
74707;SDS011;63360;50.104;8.074;2023-04-29T02:29:08;5.60;;;3.50;;
74707;SDS011;63360;50.104;8.074;2023-04-29T02:31:35;7.70;;;3.40;;
74707;SDS011;63360;50.104;8.074;2023-04-29T02:34:01;6.97;;;3.70;;
74707;SDS011;63360;50.104;8.074;2023-04-29T02:36:27;7.70;;;4.22;;
74707;SDS011;63360;50.104;8.074;2023-04-29T02:38:54;10.48;;;5.65;;
74707;SDS011;63360;50.104;8.074;2023-04-29T02:41:21;12.87;;;6.10;;
74707;SDS011;63360;50.104;8.074;2023-04-29T02:43:47;15.55;;;8.18;;
74707;SDS011;63360;50.104;8.074;2023-04-29T02:46:14;17.05;;;8.65;;
74707;SDS011;63360;50.104;8.074;2023-04-29T02:48:41;17.02;;;8.32;;
74707;SDS011;63360;50.104;8.074;2023-04-29T02:51:08;19.58;;;9.55;;
74707;SDS011;63360;50.104;8.074;2023-04-29T02:53:34;19.50;;;9.47;;
74707;SDS011;63360;50.104;8.074;2023-04-29T02:56:01;19.63;;;9.70;;
74707;SDS011;63360;50.104;8.074;2023-04-29T02:58:27;20.23;;;9.73;;
74707;SDS011;63360;50.104;8.074;2023-04-29T03:00:54;17.70;;;9.38;;
74707;SDS011;63360;50.104;8.074;2023-04-29T03:03:20;19.63;;;10.02;;
74707;SDS011;63360;50.104;8.074;2023-04-29T03:05:48;20.43;;;10.50;;
74707;SDS011;63360;50.104;8.074;2023-04-29T03:08:15;18.92;;;9.75;;
74707;SDS011;63360;50.104;8.074;2023-04-29T03:10:41;20.23;;;10.52;;
74707;SDS011;63360;50.104;8.074;2023-04-29T03:13:08;20.42;;;9.95;;
74707;SDS011;63360;50.104;8.074;2023-04-29T03:15:34;22.33;;;10.27;;
74707;SDS011;63360;50.104;8.074;2023-04-29T03:18:01;19.43;;;9.30;;
74707;SDS011;63360;50.104;8.074;2023-04-29T03:20:29;19.45;;;9.55;;
74707;SDS011;63360;50.104;8.074;2023-04-29T03:22:57;19.88;;;10.18;;
74707;SDS011;63360;50.104;8.074;2023-04-29T03:25:25;19.48;;;10.13;;
74707;SDS011;63360;50.104;8.074;2023-04-29T03:27:53;21.52;;;9.85;;
74707;SDS011;63360;50.104;8.074;2023-04-29T03:30:20;19.83;;;10.10;;
74707;SDS011;63360;50.104;8.074;2023-04-29T03:32:46;19.83;;;9.55;;
74707;SDS011;63360;50.104;8.074;2023-04-29T03:35:13;21.38;;;10.52;;
74707;SDS011;63360;50.104;8.074;2023-04-29T03:37:41;22.73;;;10.13;;
74707;SDS011;63360;50.104;8.074;2023-04-29T03:40:09;20.83;;;10.38;;
74707;SDS011;63360;50.104;8.074;2023-04-29T03:42:37;20.50;;;10.10;;
74707;SDS011;63360;50.104;8.074;2023-04-29T03:45:03;21.33;;;9.88;;
74707;SDS011;63360;50.104;8.074;2023-04-29T03:47:30;22.58;;;10.82;;
74707;SDS011;63360;50.104;8.074;2023-04-29T03:49:56;21.10;;;10.60;;
74707;SDS011;63360;50.104;8.074;2023-04-29T03:52:23;22.67;;;10.50;;
74707;SDS011;63360;50.104;8.074;2023-04-29T03:54:49;22.13;;;10.47;;
74707;SDS011;63360;50.104;8.074;2023-04-29T03:57:16;23.48;;;11.65;;
74707;SDS011;63360;50.104;8.074;2023-04-29T03:59:42;22.30;;;11.23;;
74707;SDS011;63360;50.104;8.074;2023-04-29T04:02:09;22.65;;;10.52;;
74707;SDS011;63360;50.104;8.074;2023-04-29T04:04:35;22.60;;;10.75;;
74707;SDS011;63360;50.104;8.074;2023-04-29T04:07:02;22.33;;;11.23;;
74707;SDS011;63360;50.104;8.074;2023-04-29T04:09:29;24.15;;;11.25;;
74707;SDS011;63360;50.104;8.074;2023-04-29T04:11:55;22.52;;;10.90;;
74707;SDS011;63360;50.104;8.074;2023-04-29T04:14:21;22.13;;;10.55;;
74707;SDS011;63360;50.104;8.074;2023-04-29T04:16:48;21.15;;;9.90;;
74707;SDS011;63360;50.104;8.074;2023-04-29T04:19:15;22.50;;;10.63;;
74707;SDS011;63360;50.104;8.074;2023-04-29T04:21:42;23.40;;;10.30;;
74707;SDS011;63360;50.104;8.074;2023-04-29T04:24:08;21.05;;;10.32;;
74707;SDS011;63360;50.104;8.074;2023-04-29T04:26:35;20.63;;;9.85;;
74707;SDS011;63360;50.104;8.074;2023-04-29T04:29:01;18.70;;;9.07;;
74707;SDS011;63360;50.104;8.074;2023-04-29T04:31:28;21.27;;;9.30;;
74707;SDS011;63360;50.104;8.074;2023-04-29T04:33:55;20.25;;;9.10;;
74707;SDS011;63360;50.104;8.074;2023-04-29T04:36:21;20.30;;;9.15;;
74707;SDS011;63360;50.104;8.074;2023-04-29T04:38:48;19.92;;;8.77;;
74707;SDS011;63360;50.104;8.074;2023-04-29T04:41:14;20.25;;;8.95;;
74707;SDS011;63360;50.104;8.074;2023-04-29T04:43:40;20.63;;;9.07;;
74707;SDS011;63360;50.104;8.074;2023-04-29T04:46:11;22.77;;;10.13;;
74707;SDS011;63360;50.104;8.074;2023-04-29T04:48:38;19.85;;;9.27;;
74707;SDS011;63360;50.104;8.074;2023-04-29T04:51:09;20.88;;;7.93;;
74707;SDS011;63360;50.104;8.074;2023-04-29T04:53:35;20.15;;;9.55;;
74707;SDS011;63360;50.104;8.074;2023-04-29T04:56:03;18.00;;;8.17;;
74707;SDS011;63360;50.104;8.074;2023-04-29T04:58:30;20.02;;;8.93;;
74707;SDS011;63360;50.104;8.074;2023-04-29T05:00:58;19.20;;;8.48;;
74707;SDS011;63360;50.104;8.074;2023-04-29T05:03:25;19.77;;;8.27;;
74707;SDS011;63360;50.104;8.074;2023-04-29T05:05:52;18.17;;;7.70;;
74707;SDS011;63360;50.104;8.074;2023-04-29T05:08:22;18.00;;;7.67;;
74707;SDS011;63360;50.104;8.074;2023-04-29T05:10:49;16.50;;;7.57;;
74707;SDS011;63360;50.104;8.074;2023-04-29T05:13:16;18.65;;;7.97;;
74707;SDS011;63360;50.104;8.074;2023-04-29T05:15:44;18.80;;;7.40;;
74707;SDS011;63360;50.104;8.074;2023-04-29T05:18:11;15.90;;;7.35;;
74707;SDS011;63360;50.104;8.074;2023-04-29T05:20:37;17.10;;;7.57;;
74707;SDS011;63360;50.104;8.074;2023-04-29T05:23:03;16.73;;;7.40;;
74707;SDS011;63360;50.104;8.074;2023-04-29T05:25:30;15.55;;;7.13;;
74707;SDS011;63360;50.104;8.074;2023-04-29T05:27:56;16.17;;;6.95;;
74707;SDS011;63360;50.104;8.074;2023-04-29T05:30:23;14.80;;;6.60;;
74707;SDS011;63360;50.104;8.074;2023-04-29T05:32:49;13.73;;;6.57;;
74707;SDS011;63360;50.104;8.074;2023-04-29T05:35:16;15.07;;;6.80;;
74707;SDS011;63360;50.104;8.074;2023-04-29T05:37:43;14.25;;;6.40;;
74707;SDS011;63360;50.104;8.074;2023-04-29T05:40:09;14.88;;;6.60;;
74707;SDS011;63360;50.104;8.074;2023-04-29T05:42:36;13.52;;;6.65;;
74707;SDS011;63360;50.104;8.074;2023-04-29T05:45:02;13.00;;;5.93;;
74707;SDS011;63360;50.104;8.074;2023-04-29T05:47:29;15.25;;;6.35;;
74707;SDS011;63360;50.104;8.074;2023-04-29T05:49:55;12.52;;;5.65;;
74707;SDS011;63360;50.104;8.074;2023-04-29T05:52:22;17.92;;;5.60;;
74707;SDS011;63360;50.104;8.074;2023-04-29T05:54:48;14.00;;;6.20;;
74707;SDS011;63360;50.104;8.074;2023-04-29T05:57:15;11.43;;;5.13;;
74707;SDS011;63360;50.104;8.074;2023-04-29T05:59:41;12.32;;;5.80;;
74707;SDS011;63360;50.104;8.074;2023-04-29T06:02:08;11.52;;;5.70;;
74707;SDS011;63360;50.104;8.074;2023-04-29T06:04:36;15.55;;;5.15;;
74707;SDS011;63360;50.104;8.074;2023-04-29T06:07:03;10.25;;;4.72;;
74707;SDS011;63360;50.104;8.074;2023-04-29T06:09:30;11.20;;;5.50;;
74707;SDS011;63360;50.104;8.074;2023-04-29T06:11:56;11.70;;;5.40;;
74707;SDS011;63360;50.104;8.074;2023-04-29T06:14:23;10.27;;;5.10;;
74707;SDS011;63360;50.104;8.074;2023-04-29T06:16:49;13.00;;;5.68;;
74707;SDS011;63360;50.104;8.074;2023-04-29T06:19:15;12.43;;;5.88;;
74707;SDS011;63360;50.104;8.074;2023-04-29T06:21:42;11.67;;;5.50;;
74707;SDS011;63360;50.104;8.074;2023-04-29T06:24:08;13.05;;;5.90;;
74707;SDS011;63360;50.104;8.074;2023-04-29T06:26:35;12.77;;;6.15;;
74707;SDS011;63360;50.104;8.074;2023-04-29T06:29:02;13.85;;;5.97;;
74707;SDS011;63360;50.104;8.074;2023-04-29T06:31:28;12.70;;;5.80;;
74707;SDS011;63360;50.104;8.074;2023-04-29T06:33:55;14.13;;;6.20;;
74707;SDS011;63360;50.104;8.074;2023-04-29T06:36:21;13.65;;;5.95;;
74707;SDS011;63360;50.104;8.074;2023-04-29T06:38:47;13.30;;;6.63;;
74707;SDS011;63360;50.104;8.074;2023-04-29T06:41:14;13.20;;;6.28;;
74707;SDS011;63360;50.104;8.074;2023-04-29T06:43:40;16.17;;;6.63;;
74707;SDS011;63360;50.104;8.074;2023-04-29T06:46:08;12.97;;;5.97;;
74707;SDS011;63360;50.104;8.074;2023-04-29T06:48:35;14.02;;;6.20;;
74707;SDS011;63360;50.104;8.074;2023-04-29T06:51:02;14.77;;;7.03;;
74707;SDS011;63360;50.104;8.074;2023-04-29T06:53:29;16.10;;;6.85;;
74707;SDS011;63360;50.104;8.074;2023-04-29T06:55:55;14.40;;;7.05;;
74707;SDS011;63360;50.104;8.074;2023-04-29T06:58:21;16.93;;;7.00;;
74707;SDS011;63360;50.104;8.074;2023-04-29T07:00:49;19.02;;;8.10;;
74707;SDS011;63360;50.104;8.074;2023-04-29T07:03:16;14.93;;;7.15;;
74707;SDS011;63360;50.104;8.074;2023-04-29T07:05:44;16.48;;;7.03;;
74707;SDS011;63360;50.104;8.074;2023-04-29T07:08:11;16.88;;;7.20;;
74707;SDS011;63360;50.104;8.074;2023-04-29T07:10:39;14.57;;;6.43;;
74707;SDS011;63360;50.104;8.074;2023-04-29T07:13:06;16.27;;;7.10;;
74707;SDS011;63360;50.104;8.074;2023-04-29T07:15:33;15.25;;;6.57;;
74707;SDS011;63360;50.104;8.074;2023-04-29T07:18:02;14.13;;;6.53;;
74707;SDS011;63360;50.104;8.074;2023-04-29T07:20:29;14.32;;;6.30;;
74707;SDS011;63360;50.104;8.074;2023-04-29T07:22:56;14.27;;;6.47;;
74707;SDS011;63360;50.104;8.074;2023-04-29T07:25:23;14.48;;;6.65;;
74707;SDS011;63360;50.104;8.074;2023-04-29T07:27:49;17.02;;;6.70;;
74707;SDS011;63360;50.104;8.074;2023-04-29T07:30:15;14.80;;;6.40;;
74707;SDS011;63360;50.104;8.074;2023-04-29T07:32:42;15.55;;;7.03;;
74707;SDS011;63360;50.104;8.074;2023-04-29T07:35:08;13.70;;;6.60;;
74707;SDS011;63360;50.104;8.074;2023-04-29T07:37:35;14.43;;;6.35;;
74707;SDS011;63360;50.104;8.074;2023-04-29T07:40:01;13.82;;;6.63;;
74707;SDS011;63360;50.104;8.074;2023-04-29T07:42:27;13.52;;;6.70;;
74707;SDS011;63360;50.104;8.074;2023-04-29T07:44:55;14.70;;;6.78;;
74707;SDS011;63360;50.104;8.074;2023-04-29T07:47:21;16.23;;;6.63;;
74707;SDS011;63360;50.104;8.074;2023-04-29T07:49:48;13.05;;;6.53;;
74707;SDS011;63360;50.104;8.074;2023-04-29T07:52:14;12.82;;;6.30;;
74707;SDS011;63360;50.104;8.074;2023-04-29T07:54:41;11.88;;;6.00;;
74707;SDS011;63360;50.104;8.074;2023-04-29T07:57:07;12.77;;;6.22;;
74707;SDS011;63360;50.104;8.074;2023-04-29T07:59:34;12.43;;;5.87;;
74707;SDS011;63360;50.104;8.074;2023-04-29T08:02:00;12.40;;;5.68;;
74707;SDS011;63360;50.104;8.074;2023-04-29T08:04:27;15.20;;;5.97;;
74707;SDS011;63360;50.104;8.074;2023-04-29T08:06:53;13.43;;;5.75;;
74707;SDS011;63360;50.104;8.074;2023-04-29T08:09:20;11.82;;;5.78;;
74707;SDS011;63360;50.104;8.074;2023-04-29T08:11:46;11.53;;;5.53;;
74707;SDS011;63360;50.104;8.074;2023-04-29T08:14:13;11.73;;;5.57;;
74707;SDS011;63360;50.104;8.074;2023-04-29T08:16:39;11.98;;;5.70;;
74707;SDS011;63360;50.104;8.074;2023-04-29T08:19:05;10.57;;;5.00;;
74707;SDS011;63360;50.104;8.074;2023-04-29T08:21:32;12.68;;;5.80;;
74707;SDS011;63360;50.104;8.074;2023-04-29T08:24:00;10.43;;;5.00;;
74707;SDS011;63360;50.104;8.074;2023-04-29T08:26:26;11.75;;;5.88;;
74707;SDS011;63360;50.104;8.074;2023-04-29T08:28:53;10.63;;;4.80;;
74707;SDS011;63360;50.104;8.074;2023-04-29T08:31:19;10.93;;;4.90;;
74707;SDS011;63360;50.104;8.074;2023-04-29T08:33:47;10.25;;;4.88;;
74707;SDS011;63360;50.104;8.074;2023-04-29T08:36:13;12.03;;;5.23;;
74707;SDS011;63360;50.104;8.074;2023-04-29T08:38:40;10.00;;;4.68;;
74707;SDS011;63360;50.104;8.074;2023-04-29T08:41:07;10.85;;;5.07;;
74707;SDS011;63360;50.104;8.074;2023-04-29T08:43:35;9.18;;;4.38;;
74707;SDS011;63360;50.104;8.074;2023-04-29T08:46:02;10.15;;;4.80;;
74707;SDS011;63360;50.104;8.074;2023-04-29T08:48:30;9.50;;;4.57;;
74707;SDS011;63360;50.104;8.074;2023-04-29T08:50:57;9.63;;;4.38;;
74707;SDS011;63360;50.104;8.074;2023-04-29T08:53:24;9.95;;;4.00;;
74707;SDS011;63360;50.104;8.074;2023-04-29T08:55:51;9.52;;;4.13;;
74707;SDS011;63360;50.104;8.074;2023-04-29T08:58:19;10.10;;;3.90;;
74707;SDS011;63360;50.104;8.074;2023-04-29T09:00:46;8.23;;;3.70;;
74707;SDS011;63360;50.104;8.074;2023-04-29T09:03:16;9.45;;;3.72;;
74707;SDS011;63360;50.104;8.074;2023-04-29T09:05:54;8.98;;;3.78;;
74707;SDS011;63360;50.104;8.074;2023-04-29T09:08:24;8.95;;;3.53;;
74707;SDS011;63360;50.104;8.074;2023-04-29T09:10:52;9.13;;;3.78;;
74707;SDS011;63360;50.104;8.074;2023-04-29T09:13:29;7.73;;;3.27;;
74707;SDS011;63360;50.104;8.074;2023-04-29T09:15:56;7.32;;;3.60;;
74707;SDS011;63360;50.104;8.074;2023-04-29T09:21:16;6.10;;;3.10;;
74707;SDS011;63360;50.104;8.074;2023-04-29T09:23:55;7.00;;;3.30;;
74707;SDS011;63360;50.104;8.074;2023-04-29T09:26:26;8.13;;;3.17;;
74707;SDS011;63360;50.104;8.074;2023-04-29T09:31:49;6.57;;;3.20;;
74707;SDS011;63360;50.104;8.074;2023-04-29T09:34:29;5.82;;;2.90;;
74707;SDS011;63360;50.104;8.074;2023-04-29T09:36:56;6.50;;;2.80;;
74707;SDS011;63360;50.104;8.074;2023-04-29T09:39:24;8.57;;;3.23;;
74707;SDS011;63360;50.104;8.074;2023-04-29T09:44:27;6.43;;;3.33;;
74707;SDS011;63360;50.104;8.074;2023-04-29T09:47:00;7.38;;;3.30;;
74707;SDS011;63360;50.104;8.074;2023-04-29T09:49:37;7.38;;;3.20;;
74707;SDS011;63360;50.104;8.074;2023-04-29T09:52:11;7.00;;;3.20;;
74707;SDS011;63360;50.104;8.074;2023-04-29T09:54:39;5.82;;;2.88;;
74707;SDS011;63360;50.104;8.074;2023-04-29T09:57:07;6.28;;;2.92;;
74707;SDS011;63360;50.104;8.074;2023-04-29T09:59:36;7.85;;;3.38;;
74707;SDS011;63360;50.104;8.074;2023-04-29T10:02:14;6.32;;;3.13;;
74707;SDS011;63360;50.104;8.074;2023-04-29T10:04:44;6.97;;;3.03;;
74707;SDS011;63360;50.104;8.074;2023-04-29T10:07:15;6.38;;;3.10;;
74707;SDS011;63360;50.104;8.074;2023-04-29T10:09:43;7.25;;;2.72;;
74707;SDS011;63360;50.104;8.074;2023-04-29T10:12:17;6.40;;;2.55;;
74707;SDS011;63360;50.104;8.074;2023-04-29T10:17:48;5.20;;;2.40;;
74707;SDS011;63360;50.104;8.074;2023-04-29T10:20:21;5.95;;;2.40;;
74707;SDS011;63360;50.104;8.074;2023-04-29T10:22:52;5.32;;;2.88;;
74707;SDS011;63360;50.104;8.074;2023-04-29T10:25:21;6.32;;;2.65;;
74707;SDS011;63360;50.104;8.074;2023-04-29T10:27:49;7.78;;;3.00;;
74707;SDS011;63360;50.104;8.074;2023-04-29T10:30:19;5.10;;;2.30;;
74707;SDS011;63360;50.104;8.074;2023-04-29T10:32:48;6.60;;;2.35;;
74707;SDS011;63360;50.104;8.074;2023-04-29T10:35:18;5.50;;;2.50;;
74707;SDS011;63360;50.104;8.074;2023-04-29T10:37:46;4.80;;;2.35;;
74707;SDS011;63360;50.104;8.074;2023-04-29T10:43:05;5.73;;;2.60;;
74707;SDS011;63360;50.104;8.074;2023-04-29T10:45:32;6.85;;;2.42;;
74707;SDS011;63360;50.104;8.074;2023-04-29T10:50:28;3.78;;;2.10;;
74707;SDS011;63360;50.104;8.074;2023-04-29T10:52:55;4.88;;;2.35;;
74707;SDS011;63360;50.104;8.074;2023-04-29T10:55:23;4.27;;;2.27;;
74707;SDS011;63360;50.104;8.074;2023-04-29T10:57:53;5.55;;;2.92;;
74707;SDS011;63360;50.104;8.074;2023-04-29T11:00:25;6.40;;;3.17;;
74707;SDS011;63360;50.104;8.074;2023-04-29T11:02:53;7.20;;;3.90;;
74707;SDS011;63360;50.104;8.074;2023-04-29T11:08:12;10.20;;;3.93;;
74707;SDS011;63360;50.104;8.074;2023-04-29T11:10:42;7.53;;;3.90;;
74707;SDS011;63360;50.104;8.074;2023-04-29T11:15:52;7.32;;;3.50;;
74707;SDS011;63360;50.104;8.074;2023-04-29T11:18:19;6.15;;;3.08;;
74707;SDS011;63360;50.104;8.074;2023-04-29T11:23:37;6.63;;;3.33;;
74707;SDS011;63360;50.104;8.074;2023-04-29T11:26:06;6.75;;;2.92;;
74707;SDS011;63360;50.104;8.074;2023-04-29T11:28:33;6.88;;;3.08;;
74707;SDS011;63360;50.104;8.074;2023-04-29T11:30:59;5.53;;;2.90;;
74707;SDS011;63360;50.104;8.074;2023-04-29T11:33:30;7.20;;;3.40;;
74707;SDS011;63360;50.104;8.074;2023-04-29T11:35:57;6.63;;;3.40;;
74707;SDS011;63360;50.104;8.074;2023-04-29T11:38:24;5.97;;;2.72;;
74707;SDS011;63360;50.104;8.074;2023-04-29T11:40:51;5.72;;;2.92;;
74707;SDS011;63360;50.104;8.074;2023-04-29T11:43:21;6.63;;;3.13;;
74707;SDS011;63360;50.104;8.074;2023-04-29T11:45:49;5.37;;;2.70;;
74707;SDS011;63360;50.104;8.074;2023-04-29T11:48:17;5.90;;;2.60;;
74707;SDS011;63360;50.104;8.074;2023-04-29T11:50:45;4.75;;;2.42;;
74707;SDS011;63360;50.104;8.074;2023-04-29T11:53:13;5.20;;;2.38;;
74707;SDS011;63360;50.104;8.074;2023-04-29T11:55:41;5.05;;;2.60;;
74707;SDS011;63360;50.104;8.074;2023-04-29T11:58:10;4.90;;;2.30;;
74707;SDS011;63360;50.104;8.074;2023-04-29T12:00:37;5.63;;;2.67;;
74707;SDS011;63360;50.104;8.074;2023-04-29T12:03:21;5.65;;;2.70;;
74707;SDS011;63360;50.104;8.074;2023-04-29T12:05:51;5.28;;;3.00;;
74707;SDS011;63360;50.104;8.074;2023-04-29T12:08:22;8.55;;;3.70;;
74707;SDS011;63360;50.104;8.074;2023-04-29T12:10:50;7.13;;;3.83;;
74707;SDS011;63360;50.104;8.074;2023-04-29T12:13:18;7.47;;;3.97;;
74707;SDS011;63360;50.104;8.074;2023-04-29T12:15:45;10.20;;;4.75;;
74707;SDS011;63360;50.104;8.074;2023-04-29T12:18:13;8.63;;;4.20;;
74707;SDS011;63360;50.104;8.074;2023-04-29T12:20:42;9.82;;;4.22;;
74707;SDS011;63360;50.104;8.074;2023-04-29T12:23:12;8.20;;;4.07;;
74707;SDS011;63360;50.104;8.074;2023-04-29T12:25:40;7.90;;;3.83;;
74707;SDS011;63360;50.104;8.074;2023-04-29T12:28:13;7.30;;;4.50;;
74707;SDS011;63360;50.104;8.074;2023-04-29T12:30:42;6.60;;;3.60;;
74707;SDS011;63360;50.104;8.074;2023-04-29T12:33:10;7.03;;;3.88;;
74707;SDS011;63360;50.104;8.074;2023-04-29T12:35:43;5.83;;;3.27;;
74707;SDS011;63360;50.104;8.074;2023-04-29T12:38:10;7.93;;;3.20;;
74707;SDS011;63360;50.104;8.074;2023-04-29T12:40:38;7.15;;;3.50;;
74707;SDS011;63360;50.104;8.074;2023-04-29T12:43:09;5.60;;;3.17;;
74707;SDS011;63360;50.104;8.074;2023-04-29T12:45:37;5.65;;;3.30;;
74707;SDS011;63360;50.104;8.074;2023-04-29T12:48:04;8.37;;;3.83;;
74707;SDS011;63360;50.104;8.074;2023-04-29T12:50:43;6.35;;;3.70;;
74707;SDS011;63360;50.104;8.074;2023-04-29T12:53:14;6.05;;;3.45;;
74707;SDS011;63360;50.104;8.074;2023-04-29T12:55:41;6.88;;;4.10;;
74707;SDS011;63360;50.104;8.074;2023-04-29T12:58:07;6.10;;;3.15;;
74707;SDS011;63360;50.104;8.074;2023-04-29T13:00:34;5.87;;;3.13;;
74707;SDS011;63360;50.104;8.074;2023-04-29T13:03:02;7.15;;;3.78;;
74707;SDS011;63360;50.104;8.074;2023-04-29T13:05:29;6.35;;;3.72;;
74707;SDS011;63360;50.104;8.074;2023-04-29T13:07:56;6.47;;;3.70;;
74707;SDS011;63360;50.104;8.074;2023-04-29T13:10:22;6.05;;;3.50;;
74707;SDS011;63360;50.104;8.074;2023-04-29T13:12:49;8.00;;;3.83;;
74707;SDS011;63360;50.104;8.074;2023-04-29T13:15:15;6.10;;;3.95;;
74707;SDS011;63360;50.104;8.074;2023-04-29T13:17:42;6.20;;;3.53;;
74707;SDS011;63360;50.104;8.074;2023-04-29T13:20:08;11.40;;;4.15;;
74707;SDS011;63360;50.104;8.074;2023-04-29T13:22:36;5.88;;;3.72;;
74707;SDS011;63360;50.104;8.074;2023-04-29T13:25:03;6.00;;;3.40;;
74707;SDS011;63360;50.104;8.074;2023-04-29T13:27:30;6.63;;;3.45;;
74707;SDS011;63360;50.104;8.074;2023-04-29T13:29:57;6.38;;;3.70;;
74707;SDS011;63360;50.104;8.074;2023-04-29T13:32:23;7.88;;;3.97;;
74707;SDS011;63360;50.104;8.074;2023-04-29T13:34:50;8.88;;;4.78;;
74707;SDS011;63360;50.104;8.074;2023-04-29T13:37:17;7.27;;;4.53;;
74707;SDS011;63360;50.104;8.074;2023-04-29T13:39:45;6.72;;;4.32;;
74707;SDS011;63360;50.104;8.074;2023-04-29T13:42:13;6.55;;;4.00;;
74707;SDS011;63360;50.104;8.074;2023-04-29T13:44:41;9.95;;;4.30;;
74707;SDS011;63360;50.104;8.074;2023-04-29T13:47:18;8.15;;;4.60;;
74707;SDS011;63360;50.104;8.074;2023-04-29T13:49:50;8.23;;;4.90;;
74707;SDS011;63360;50.104;8.074;2023-04-29T13:52:20;8.20;;;4.60;;
74707;SDS011;63360;50.104;8.074;2023-04-29T13:54:49;8.57;;;5.40;;
74707;SDS011;63360;50.104;8.074;2023-04-29T13:57:36;10.13;;;5.10;;
74707;SDS011;63360;50.104;8.074;2023-04-29T14:00:05;9.15;;;5.43;;
74707;SDS011;63360;50.104;8.074;2023-04-29T14:02:54;10.97;;;5.47;;
74707;SDS011;63360;50.104;8.074;2023-04-29T14:05:23;10.30;;;5.85;;
74707;SDS011;63360;50.104;8.074;2023-04-29T14:07:50;11.02;;;6.07;;
74707;SDS011;63360;50.104;8.074;2023-04-29T14:10:17;12.18;;;6.03;;
74707;SDS011;63360;50.104;8.074;2023-04-29T14:12:43;11.32;;;5.63;;
74707;SDS011;63360;50.104;8.074;2023-04-29T14:15:10;10.77;;;5.93;;
74707;SDS011;63360;50.104;8.074;2023-04-29T14:17:37;10.95;;;6.03;;
74707;SDS011;63360;50.104;8.074;2023-04-29T14:20:03;10.55;;;5.68;;
74707;SDS011;63360;50.104;8.074;2023-04-29T14:22:30;11.02;;;6.22;;
74707;SDS011;63360;50.104;8.074;2023-04-29T14:24:57;10.85;;;6.13;;
74707;SDS011;63360;50.104;8.074;2023-04-29T14:27:23;10.03;;;5.40;;
74707;SDS011;63360;50.104;8.074;2023-04-29T14:29:50;11.18;;;6.00;;
74707;SDS011;63360;50.104;8.074;2023-04-29T14:32:16;10.85;;;6.32;;
74707;SDS011;63360;50.104;8.074;2023-04-29T14:34:42;11.50;;;6.03;;
74707;SDS011;63360;50.104;8.074;2023-04-29T14:37:09;10.70;;;5.75;;
74707;SDS011;63360;50.104;8.074;2023-04-29T14:39:36;11.90;;;6.30;;
74707;SDS011;63360;50.104;8.074;2023-04-29T14:42:02;14.30;;;7.15;;
74707;SDS011;63360;50.104;8.074;2023-04-29T14:44:29;12.40;;;6.63;;
74707;SDS011;63360;50.104;8.074;2023-04-29T14:46:56;12.57;;;6.53;;
74707;SDS011;63360;50.104;8.074;2023-04-29T14:49:22;12.23;;;6.60;;
74707;SDS011;63360;50.104;8.074;2023-04-29T14:51:49;11.70;;;6.40;;
74707;SDS011;63360;50.104;8.074;2023-04-29T14:54:15;12.40;;;6.72;;
74707;SDS011;63360;50.104;8.074;2023-04-29T14:56:41;14.35;;;6.93;;
74707;SDS011;63360;50.104;8.074;2023-04-29T14:59:08;11.93;;;6.90;;
74707;SDS011;63360;50.104;8.074;2023-04-29T15:01:34;12.85;;;6.88;;
74707;SDS011;63360;50.104;8.074;2023-04-29T15:04:01;13.93;;;7.40;;
74707;SDS011;63360;50.104;8.074;2023-04-29T15:06:30;14.70;;;7.80;;
74707;SDS011;63360;50.104;8.074;2023-04-29T15:08:57;14.05;;;7.45;;
74707;SDS011;63360;50.104;8.074;2023-04-29T15:11:23;13.40;;;7.35;;
74707;SDS011;63360;50.104;8.074;2023-04-29T15:13:51;12.55;;;6.70;;
74707;SDS011;63360;50.104;8.074;2023-04-29T15:16:17;19.57;;;7.53;;